Terminal Aerodrome Forecast
Issued by NWS

Home | Current Version | Previous Version | Text Only | Print | Product List | Glossary On
Versions: 1 2 3 4 5 6 7 8 9 10 11 12 13
000
FTUS45 KRIW 271100
TAFCOD
TAF
KCOD 271139Z 2712/2812 VRB05KT P6SM SCT110
     FM271900 06005KT P6SM SCT080
     FM280200 VRB05KT P6SM FEW090
     FM280600 21005KT P6SM SKC
      AMD LTD TO CLD VIS AND WIND=

USA.gov is the U.S. government's official web portal to all federal, state and local government web resources and services.